IkaScore Players IkaScore Alliances






Support IkaScore

Please donate to
me@ikascore.com

using Skrill
Latvia Epsilon
Ikariam players: 50
AverageTotal
Kopējais punktu skaits: 23745961 1187298031
Celtnieki: 19670755 983537771
Celtniecības līmeņi: 2988 4407103
Zinātnieki: 859554 1267841509
Pētniecības līmenis: 293 432312
Ģenerāļi: 11299 16665356
Zelts: 35951493 1797574626
Uzbrukuma punkti: 2819 4158535
Aizsardzības punkti: 4242 6257519
Tirdzniecības statistika: 2458 3625644
Resursi: 14783292 739164599
ziedot: 436954 644506490
Score vulnerability: 192936 284580794
Gold vulnerability: 2222 3277982
Population: 17616 25983204
Donations to score: 358372 528598434

Digg! Delicious! IkaScore homepage
Players - Kopējais punktu skaits
  per page  Next page >>
Rank Ikariam player Alliance Score Type Score Updated
1 Liesmu pavēlnieks Ezīcz EŽI Kopējais punktu skaits 97601427 21/05 10:33
2 Priekšnieks I-sHiNe EŽI Kopējais punktu skaits 95991000 21/05 10:33
3 FOX03 EŽI Kopējais punktu skaits 61101531 21/05 10:33
4 Admirālis Sipango EŽI Kopējais punktu skaits 59921844 21/05 10:33
Support IkaScore

Please donate to    me@ikascore.com    using Skrill
5 Admirālis King Persejs ZXN Kopējais punktu skaits 55849385 21/05 10:33
6 Pirātu karalis pumba DESA Kopējais punktu skaits 55555799 21/05 10:33
7 Karaļa Mēdosa mantzinis Larry Laffer SOG Kopējais punktu skaits 51742402 21/05 10:33
8 Dievu dzērienu servētājs Lācīc EŽI Kopējais punktu skaits 50322742 21/05 10:33
9 Marmora magnāts Patrons K15R Kopējais punktu skaits 46945697 21/05 10:33
10 Kimk EŽI Kopējais punktu skaits 46534977 21/05 10:33
11 CIPO LAT Kopējais punktu skaits 42592624 21/05 10:33
12 Smalkās mākslas meistars Dalas EŽI Kopējais punktu skaits 41544543 21/05 10:33
13 Mākslinieks sleeping_awake EŽI Kopējais punktu skaits 39935486 21/05 10:33
14 Kristāla magnāts Tūrists NEZIN Kopējais punktu skaits 38366478 21/05 10:33
15 Cricket EŽI Kopējais punktu skaits 37623624 21/05 10:33
16 zzzz new Kopējais punktu skaits 36976215 21/05 10:33
17 Senais Ezis EŽI Kopējais punktu skaits 36323053 21/05 10:33
18 Laboratorijas žurka kasuks SPARS Kopējais punktu skaits 36159664 21/05 10:33
19 klibais2 LAT Kopējais punktu skaits 35638104 21/05 10:33
20 dragoo LAT Kopējais punktu skaits 32780919 21/05 10:33
21 Leģionārs 77 Kopējais punktu skaits 32463480 21/05 10:33
22 gt99 LAT Kopējais punktu skaits 32120571 21/05 10:33
23 Giekalitis LAT Kopējais punktu skaits 32063472 21/05 10:33
24 Heņa79 Kopējais punktu skaits 31481919 21/05 10:33
25 Kaislīgs kolekcionārs Silkra Kopējais punktu skaits 31047557 21/05 10:33
26 valdisss KF P Kopējais punktu skaits 31005355 21/05 10:33
27 Mākslinieks Al_Cohol SPARS Kopējais punktu skaits 30695081 21/05 10:33
28 gt99lv LAT Kopējais punktu skaits 30520458 21/05 10:33
29 ronda P-Z Kopējais punktu skaits 29742863 21/05 10:33
30 Vēstnieks MIL ZXN Kopējais punktu skaits 29535444 21/05 10:33
31 Zelimhans PO- Kopējais punktu skaits 29307539 21/05 10:33
32 nike air 13 Kopējais punktu skaits 29099058 21/05 10:33
33 Mākslinieks KVL Mc Murss Kopējais punktu skaits 28530633 21/05 10:33
34 Predator55 NEZIN Kopējais punktu skaits 27775204 21/05 10:33
35 Vells KidLV Kopējais punktu skaits 27729848 21/05 10:33
36 Cooper NEZIN Kopējais punktu skaits 27572731 21/05 10:33
37 bankieriic LAT Kopējais punktu skaits 27436665 21/05 10:33
38 Apple Kopējais punktu skaits 27220597 21/05 10:33
39 atonkuls Kopējais punktu skaits 27008598 21/05 10:33
40 Apollons sezams ZXN Kopējais punktu skaits 26889628 21/05 10:33
41 Marmora magnāts Lord Uhtred K15R Kopējais punktu skaits 26780902 21/05 10:33
42 Chupacabra P-Z Kopējais punktu skaits 26598653 21/05 10:33
43 Maratonists Xander SOG Kopējais punktu skaits 26527343 21/05 10:33
44 U-Boat EŽI Kopējais punktu skaits 26514669 21/05 10:33
45 Kristāla magnāts romina LAT Kopējais punktu skaits 26276433 21/05 10:33
46 Sīzifs digitteks NEZIN Kopējais punktu skaits 26120577 21/05 10:33
47 Orkla KidLV Kopējais punktu skaits 26105681 21/05 10:33
48 Diversants P-Z Kopējais punktu skaits 25877198 21/05 10:33
49 Norcis Kopējais punktu skaits 25845967 21/05 10:33
50 Herkuless Lemekkins ZXN Kopējais punktu skaits 25712352 21/05 10:33
51 deepangel Kopējais punktu skaits 25135828 21/05 10:33
52 Imperators Runcis Killroy Kopējais punktu skaits 25045402 21/05 10:33
53 nike air P-Z Kopējais punktu skaits 24442003 21/05 10:33
54 kristzz LAT Kopējais punktu skaits 24325174 21/05 10:33
55 Detektīvs Čaks Noriss ZXN Kopējais punktu skaits 24039771 21/05 10:33
56 naudigais KidLV Kopējais punktu skaits 24038036 21/05 10:33
57 internal ZXN Kopējais punktu skaits 23994269 21/05 10:33
58 Jaffa EŽI Kopējais punktu skaits 23967269 21/05 10:33
59 Runcis Draxo K15R Kopējais punktu skaits 23606251 21/05 10:33
60 Jurka Kopējais punktu skaits 23534819 21/05 10:33
61 rondaa LAT Kopējais punktu skaits 23284763 21/05 10:33
62 Imperators Trencis DESA Kopējais punktu skaits 23280078 21/05 10:33
63 dragn P-Z Kopējais punktu skaits 23117114 21/05 10:33
64 Inesus LAT Kopējais punktu skaits 22644331 21/05 10:33
65 123 123e Kopējais punktu skaits 22217009 21/05 10:33
66 Kaupo P-Z Kopējais punktu skaits 22194227 21/05 10:33
67 Melnā tirgus karalis LiFe NEZIN Kopējais punktu skaits 21818644 21/05 10:33
68 Gubernators Runcis TulikDew ZXN Kopējais punktu skaits 21759391 21/05 10:33
69 -Edgars- RedS Kopējais punktu skaits 21756079 21/05 10:33
70 SMārtiņš LVS- Kopējais punktu skaits 21481038 21/05 10:33
71 Rols PO- Kopējais punktu skaits 21367540 21/05 10:33
72 Jasons NEZIN Kopējais punktu skaits 21252952 21/05 10:33
73 zāļuks LAT Kopējais punktu skaits 21252132 21/05 10:33
74 čingishans_D P-Z Kopējais punktu skaits 21099915 21/05 10:33
75 Apollons -RīdžA- NEZIN Kopējais punktu skaits 21018624 21/05 10:33
76 janisz Kopējais punktu skaits 20854141 21/05 10:33
77 Mākslinieks fuks LAT Kopējais punktu skaits 20800670 21/05 10:33
78 Čingishans KidLV Kopējais punktu skaits 20603661 21/05 10:33
79 Pirātu kapteinis IVARS97 Z P Kopējais punktu skaits 20558519 21/05 10:33
80 Dievu dzērienu servētājs jaudigais NEZIN Kopējais punktu skaits 20537072 21/05 10:33
81 Čingishans_G Kopējais punktu skaits 20379176 21/05 10:33
82 Ziloņkaula torņa sargs wilsis EŽI Kopējais punktu skaits 20255918 21/05 10:33
83 Mākslinieks Her0 NEZIN Kopējais punktu skaits 19830622 21/05 10:33
84 chikago ZXN Kopējais punktu skaits 19785004 21/05 10:33
85 Legacy -FX- Kopējais punktu skaits 19575054 21/05 10:33
86 Klaids PO- Kopējais punktu skaits 19548478 21/05 10:33
87 ZARNASKUNGS -AHA- Kopējais punktu skaits 19502575 21/05 10:33
88 Gubernators Amun-Ra LAT Kopējais punktu skaits 19460531 21/05 10:33
89 Marmora magnāts drink_it RedS Kopējais punktu skaits 19440297 21/05 10:33
90 Patrons exit Kat Kopējais punktu skaits 19398360 21/05 10:33
91 Podi LAT Kopējais punktu skaits 19268732 21/05 10:33
92 Runcis Paradox K15R Kopējais punktu skaits 19264979 21/05 10:33
93 Karaļa Mēdosa mantzinis Lucifer ZXN Kopējais punktu skaits 19060236 21/05 10:33
94 Čingishans_B KidLV Kopējais punktu skaits 19000785 21/05 10:33
95 kukers123 LAT Kopējais punktu skaits 18458718 21/05 10:33
96 kukers P-Z Kopējais punktu skaits 18304474 21/05 10:33
97 Vēstnieks Tihomir P-Z Kopējais punktu skaits 18238595 21/05 10:33
98 Ozolss LAT Kopējais punktu skaits 18211954 21/05 10:33
99 agucis191 LVS- Kopējais punktu skaits 18204987 21/05 10:33
100 Punktu mednieks Vannis LAT Kopējais punktu skaits 17710883 21/05 10:33
  per page  Next page >>

Copyright © 2010 IkaScore.com All Rights Reserved | Disclaimer